createdAt,value
2018-09-01T00:00:45.952Z,90.30
2018-09-01T00:03:13.644Z,90.60
2018-09-01T00:05:41.317Z,90.40
2018-09-01T00:08:15.876Z,91.00
2018-09-01T00:10:44.266Z,90.40
2018-09-01T00:13:12.172Z,90.40
2018-09-01T00:15:39.846Z,90.60
2018-09-01T00:18:07.417Z,90.10
2018-09-01T00:20:35.152Z,90.30
2018-09-01T00:23:02.750Z,90.20
2018-09-01T00:25:30.880Z,90.60
2018-09-01T00:27:58.460Z,91.20
2018-09-01T00:30:26.574Z,91.60
2018-09-01T00:32:54.104Z,91.40
2018-09-01T00:35:21.659Z,91.50
2018-09-01T00:37:54.972Z,91.10
2018-09-01T00:40:27.213Z,91.10
2018-09-01T00:42:59.459Z,91.70
2018-09-01T00:45:27.468Z,92.10
2018-09-01T00:47:55.821Z,92.70
2018-09-01T00:50:23.984Z,93.80
2018-09-01T00:52:51.853Z,93.60
2018-09-01T00:55:25.286Z,94.40
2018-09-01T00:57:53.309Z,94.60
2018-09-01T01:00:21.510Z,94.70
2018-09-01T01:02:49.694Z,94.90
2018-09-01T01:05:18.253Z,97.00
2018-09-01T01:07:46.181Z,97.80
2018-09-01T01:10:14.311Z,99.20
2018-09-01T01:12:41.926Z,99.90
2018-09-01T01:15:11.911Z,99.90
2018-09-01T01:17:39.759Z,99.70
2018-09-01T01:20:08.122Z,99.80
2018-09-01T01:22:35.779Z,99.60
2018-09-01T01:25:04.177Z,98.50
2018-09-01T01:27:31.768Z,97.50
2018-09-01T01:30:00.037Z,97.20
2018-09-01T01:32:27.682Z,97.20
2018-09-01T01:34:55.380Z,97.80
2018-09-01T01:37:23.006Z,98.20
2018-09-01T01:39:50.607Z,99.10
2018-09-01T01:42:19.547Z,99.10
2018-09-01T01:44:47.184Z,99.30
2018-09-01T01:47:14.780Z,99.80
2018-09-01T01:49:43.826Z,99.10
2018-09-01T01:52:12.123Z,98.40
2018-09-01T01:54:39.681Z,98.00
2018-09-01T01:57:07.235Z,97.90
2018-09-01T01:59:35.539Z,97.40
2018-09-01T02:02:03.596Z,97.20
2018-09-01T02:04:31.345Z,97.70
2018-09-01T02:06:59.189Z,98.20
2018-09-01T02:09:27.353Z,98.40
2018-09-01T02:11:54.917Z,99.00
2018-09-01T02:14:23.273Z,99.90
2018-09-01T02:16:50.811Z,99.90
2018-09-01T02:19:19.392Z,99.90
2018-09-01T02:21:47.161Z,99.90
2018-09-01T02:24:14.724Z,99.90
2018-09-01T02:26:42.751Z,99.90
2018-09-01T02:29:10.381Z,99.90
2018-09-01T02:31:38.056Z,99.90
2018-09-01T02:34:05.913Z,99.90
2018-09-01T02:36:33.795Z,99.90
2018-09-01T02:39:01.905Z,99.90
2018-09-01T02:41:29.476Z,99.90
2018-09-01T02:43:57.036Z,99.90
2018-09-01T02:46:24.627Z,99.90
2018-09-01T02:48:52.378Z,99.90
2018-09-01T02:51:19.939Z,99.90
2018-09-01T02:53:47.556Z,99.90
2018-09-01T02:56:15.106Z,99.90
2018-09-01T02:58:42.639Z,99.90
2018-09-01T03:01:15.808Z,99.90
2018-09-01T03:03:43.423Z,99.90
2018-09-01T03:06:11.036Z,99.90
2018-09-01T03:08:38.934Z,99.90
2018-09-01T03:11:06.524Z,99.90
2018-09-01T03:13:34.954Z,99.90
2018-09-01T03:16:02.545Z,99.90
2018-09-01T03:18:30.774Z,99.90
2018-09-01T03:20:58.377Z,99.90
2018-09-01T03:23:26.364Z,99.90
2018-09-01T03:25:53.975Z,99.90
2018-09-01T03:28:21.495Z,99.90
2018-09-01T03:30:49.431Z,99.90
2018-09-01T03:33:16.980Z,99.90
2018-09-01T03:35:44.577Z,99.90
2018-09-01T03:38:12.235Z,99.90
2018-09-01T03:40:39.796Z,99.90
2018-09-01T03:43:07.403Z,99.90
2018-09-01T03:45:35.021Z,99.90
2018-09-01T03:48:02.904Z,99.90
2018-09-01T03:50:30.535Z,99.90
2018-09-01T03:52:58.119Z,99.90
2018-09-01T03:55:25.712Z,99.90
2018-09-01T03:57:53.368Z,99.90
2018-09-01T04:00:25.617Z,99.90
2018-09-01T04:02:53.522Z,99.90
2018-09-01T04:05:21.265Z,99.90
2018-09-01T04:07:48.824Z,99.90
2018-09-01T04:10:17.096Z,99.90
2018-09-01T04:12:44.892Z,99.90
2018-09-01T04:15:12.505Z,99.90
2018-09-01T04:17:40.043Z,99.90
2018-09-01T04:20:07.689Z,99.90
2018-09-01T04:22:35.248Z,99.90
2018-09-01T04:25:02.876Z,99.90
2018-09-01T04:27:30.890Z,99.90
2018-09-01T04:29:58.677Z,99.90
2018-09-01T04:32:26.243Z,99.90
2018-09-01T04:34:54.064Z,99.90
2018-09-01T04:37:21.590Z,99.90
2018-09-01T04:39:49.370Z,99.90
2018-09-01T04:42:16.919Z,99.90
2018-09-01T04:44:44.531Z,99.90
2018-09-01T04:47:12.222Z,99.90
2018-09-01T04:49:39.724Z,99.90
2018-09-01T04:52:07.287Z,99.90
2018-09-01T04:54:35.817Z,99.90
2018-09-01T04:57:03.427Z,99.90
2018-09-01T04:59:31.418Z,99.90
2018-09-01T05:01:59.449Z,99.90
2018-09-01T05:04:27.086Z,99.90
2018-09-01T05:06:54.776Z,99.90
2018-09-01T05:09:22.440Z,97.90
2018-09-01T05:11:49.945Z,96.80
2018-09-01T05:14:17.501Z,95.30
2018-09-01T05:16:45.264Z,95.10
2018-09-01T05:19:13.554Z,95.10
2018-09-01T05:21:41.136Z,95.70
2018-09-01T05:24:08.721Z,95.30
2018-09-01T05:26:36.364Z,94.30
2018-09-01T05:29:03.977Z,94.00
2018-09-01T05:31:31.687Z,93.20
2018-09-01T05:33:59.475Z,93.00
2018-09-01T05:36:27.141Z,92.90
2018-09-01T05:38:54.625Z,92.00
2018-09-01T05:41:22.903Z,90.80
2018-09-01T05:43:50.531Z,89.90
2018-09-01T05:46:18.072Z,90.00
2018-09-01T05:48:45.692Z,87.20
2018-09-01T05:51:13.352Z,84.30
2018-09-01T05:53:41.005Z,84.20
2018-09-01T05:56:09.362Z,82.70
2018-09-01T05:58:37.809Z,80.70
2018-09-01T06:01:05.504Z,79.20
2018-09-01T06:03:33.324Z,79.70
2018-09-01T06:06:02.363Z,79.40
2018-09-01T06:08:29.781Z,78.90
2018-09-01T06:10:57.388Z,78.00
2018-09-01T06:13:25.043Z,76.00
2018-09-01T06:15:52.723Z,76.10
2018-09-01T06:18:20.652Z,76.20
2018-09-01T06:20:48.175Z,72.70
2018-09-01T06:23:16.276Z,72.70
2018-09-01T06:25:43.888Z,73.50
2018-09-01T06:28:15.387Z,73.80
2018-09-01T06:30:48.119Z,73.10
2018-09-01T06:33:15.811Z,73.60
2018-09-01T06:35:43.516Z,73.90
2018-09-01T06:38:11.090Z,74.30
2018-09-01T06:40:38.799Z,72.10
2018-09-01T06:43:06.503Z,67.80
2018-09-01T06:45:34.178Z,63.90
2018-09-01T06:48:02.604Z,60.60
2018-09-01T06:50:30.455Z,61.50
2018-09-01T06:52:58.082Z,63.30
2018-09-01T06:55:25.685Z,67.30
2018-09-01T06:57:53.348Z,69.30
2018-09-01T07:00:22.295Z,70.20
2018-09-01T07:02:51.424Z,70.30
2018-09-01T07:05:19.694Z,72.10
2018-09-01T07:07:48.360Z,72.10
2018-09-01T07:10:16.085Z,72.50
2018-09-01T07:12:43.980Z,70.90
2018-09-01T07:15:12.736Z,71.10
2018-09-01T07:17:40.872Z,71.20
2018-09-01T07:20:09.127Z,71.50
2018-09-01T07:22:36.812Z,70.80
2018-09-01T07:25:04.611Z,71.40
2018-09-01T07:27:32.336Z,68.10
2018-09-01T07:30:00.075Z,69.30
2018-09-01T07:32:29.355Z,66.90
2018-09-01T07:34:57.886Z,67.70
2018-09-01T07:37:26.520Z,68.40
2018-09-01T07:39:54.781Z,67.80
2018-09-01T07:42:23.320Z,65.00
2018-09-01T07:44:51.285Z,65.60
2018-09-01T07:47:19.029Z,66.00
2018-09-01T07:49:47.384Z,62.50
2018-09-01T07:52:15.118Z,63.60
2018-09-01T07:54:42.994Z,64.40
2018-09-01T07:57:11.097Z,63.40
2018-09-01T07:59:38.961Z,63.40
2018-09-01T08:02:06.813Z,61.60
2018-09-01T08:04:34.839Z,63.10
2018-09-01T08:07:02.649Z,61.90
2018-09-01T08:09:30.373Z,60.60
2018-09-01T08:11:58.768Z,60.00
2018-09-01T08:14:27.029Z,60.00
2018-09-01T08:16:55.177Z,60.20
2018-09-01T08:19:22.956Z,59.50
2018-09-01T08:21:50.872Z,58.70
2018-09-01T08:24:20.371Z,56.60
2018-09-01T08:26:48.246Z,58.00
2018-09-01T08:29:16.105Z,56.50
2018-09-01T08:31:44.081Z,57.30
2018-09-01T08:34:11.943Z,54.40
2018-09-01T08:36:40.668Z,55.10
2018-09-01T08:39:13.541Z,53.70
2018-09-01T08:41:42.264Z,53.50
2018-09-01T08:44:09.923Z,52.20
2018-09-01T08:46:37.565Z,54.50
2018-09-01T08:49:05.997Z,55.60
2018-09-01T08:51:34.348Z,56.60
2018-09-01T08:54:02.196Z,56.60
2018-09-01T08:56:30.056Z,56.00
2018-09-01T08:58:57.918Z,56.10
2018-09-01T09:01:25.500Z,56.70
2018-09-01T09:03:53.568Z,56.40
2018-09-01T09:06:21.189Z,57.60
2018-09-01T09:08:48.889Z,58.60
2018-09-01T09:11:17.125Z,56.30
2018-09-01T09:13:45.368Z,58.50
2018-09-01T09:16:12.994Z,57.70
2018-09-01T09:18:40.687Z,58.70
2018-09-01T09:21:08.352Z,56.90
2018-09-01T09:23:36.964Z,55.40
2018-09-01T09:26:05.110Z,57.50
2018-09-01T09:28:32.747Z,57.30
2018-09-01T09:31:01.576Z,56.20
2018-09-01T09:33:34.093Z,56.30
2018-09-01T09:36:02.514Z,57.20
2018-09-01T09:38:30.260Z,57.40
2018-09-01T09:40:57.970Z,57.40
2018-09-01T09:43:25.764Z,57.80
2018-09-01T09:45:53.670Z,58.20
2018-09-01T09:48:21.397Z,55.00
2018-09-01T09:50:49.767Z,52.40
2018-09-01T09:53:17.426Z,50.60
2018-09-01T09:55:45.310Z,49.30
2018-09-01T09:58:13.158Z,49.10
2018-09-01T10:00:48.926Z,49.60
2018-09-01T10:03:16.689Z,49.20
2018-09-01T10:05:44.584Z,45.40
2018-09-01T10:08:14.441Z,43.30
2018-09-01T10:10:42.352Z,42.40
2018-09-01T10:13:16.559Z,39.00
2018-09-01T10:15:45.131Z,40.10
2018-09-01T10:18:13.039Z,36.70
2018-09-01T10:20:51.484Z,37.60
2018-09-01T10:23:21.073Z,39.30
2018-09-01T10:25:51.379Z,39.50
2018-09-01T10:28:19.192Z,38.40
2018-09-01T10:30:47.101Z,38.60
2018-09-01T10:33:14.844Z,34.50
2018-09-01T10:35:43.932Z,36.50
2018-09-01T10:41:07.836Z,37.30
2018-09-01T10:43:35.688Z,37.60
2018-09-01T10:46:03.603Z,37.80
2018-09-01T10:48:31.237Z,37.40
2018-09-01T10:50:59.617Z,37.80
2018-09-01T10:53:28.813Z,36.30
2018-09-01T10:55:57.857Z,35.80
2018-09-01T10:58:25.731Z,35.60
2018-09-01T11:00:54.481Z,35.60
2018-09-01T11:03:23.755Z,35.10
2018-09-01T11:05:52.492Z,35.60
2018-09-01T11:08:21.118Z,35.80
2018-09-01T11:10:48.881Z,35.90
2018-09-01T11:13:17.660Z,34.70
2018-09-01T11:15:45.475Z,34.30
2018-09-01T11:18:13.193Z,34.80
2018-09-01T11:20:41.210Z,34.10
2018-09-01T11:23:08.944Z,33.20
2018-09-01T11:25:36.876Z,31.80
2018-09-01T11:28:05.320Z,30.90
2018-09-01T11:30:33.053Z,31.50
2018-09-01T11:33:02.002Z,32.50
2018-09-01T11:35:31.001Z,33.00
2018-09-01T11:37:58.745Z,33.80
2018-09-01T11:40:26.493Z,33.80
2018-09-01T11:42:54.628Z,34.00
2018-09-01T11:45:23.387Z,33.90
2018-09-01T11:47:51.360Z,34.30
2018-09-01T11:50:19.076Z,34.30
2018-09-01T11:52:46.984Z,33.80
2018-09-01T11:55:14.751Z,33.20
2018-09-01T11:57:42.676Z,32.10
2018-09-01T12:00:11.199Z,31.80
2018-09-01T12:02:39.242Z,30.50
2018-09-01T12:05:07.753Z,32.30
2018-09-01T12:07:35.616Z,33.20
2018-09-01T12:10:09.147Z,32.70
2018-09-01T12:12:37.445Z,33.40
2018-09-01T12:15:05.153Z,33.80
2018-09-01T12:17:32.964Z,32.40
2018-09-01T12:20:00.806Z,31.40
2018-09-01T12:22:33.052Z,31.00
2018-09-01T12:25:00.715Z,30.00
2018-09-01T12:27:29.684Z,29.30
2018-09-01T12:29:57.361Z,29.00
2018-09-01T12:32:26.489Z,27.40
2018-09-01T12:34:54.514Z,28.60
2018-09-01T12:37:22.844Z,28.30
2018-09-01T12:39:51.030Z,27.90
2018-09-01T12:42:20.037Z,27.70
2018-09-01T12:44:47.641Z,27.60
2018-09-01T12:47:16.373Z,27.60
2018-09-01T12:49:44.124Z,28.60
2018-09-01T12:52:12.428Z,28.90
2018-09-01T12:54:40.104Z,29.80
2018-09-01T12:57:08.354Z,29.60
2018-09-01T12:59:36.875Z,29.50
2018-09-01T13:02:04.829Z,30.10
2018-09-01T13:04:32.486Z,29.70
2018-09-01T13:07:00.935Z,29.90
2018-09-01T13:09:29.255Z,29.00
2018-09-01T13:12:05.918Z,29.10
2018-09-01T13:14:33.729Z,29.40
2018-09-01T13:17:01.408Z,29.40
2018-09-01T13:19:29.625Z,28.90
2018-09-01T13:21:57.431Z,28.90
2018-09-01T13:24:25.086Z,27.50
2018-09-01T13:26:54.267Z,27.80
2018-09-01T13:29:21.817Z,28.90
2018-09-01T13:31:50.536Z,28.10
2018-09-01T13:34:18.202Z,27.90
2018-09-01T13:36:45.776Z,27.90
2018-09-01T13:39:13.782Z,28.20
2018-09-01T13:41:42.513Z,28.60
2018-09-01T13:44:10.968Z,28.40
2018-09-01T13:46:38.961Z,28.90
2018-09-01T13:49:07.108Z,28.60
2018-09-01T13:51:34.830Z,28.50
2018-09-01T13:54:02.481Z,28.20
2018-09-01T13:56:30.272Z,28.60
2018-09-01T13:58:58.000Z,28.10
2018-09-01T14:01:25.705Z,28.80
2018-09-01T14:03:53.392Z,28.30
2018-09-01T14:06:21.249Z,26.80
2018-09-01T14:08:49.861Z,27.00
2018-09-01T14:11:18.702Z,27.20
2018-09-01T14:13:46.403Z,26.60
2018-09-01T14:16:14.373Z,27.20
2018-09-01T14:18:46.656Z,26.30
2018-09-01T14:21:14.446Z,26.90
2018-09-01T14:23:42.720Z,26.30
2018-09-01T14:26:10.383Z,26.00
2018-09-01T14:28:37.950Z,26.40
2018-09-01T14:31:05.685Z,27.30
2018-09-01T14:33:33.582Z,25.90
2018-09-01T14:36:04.077Z,26.40
2018-09-01T14:38:31.255Z,26.40
2018-09-01T14:40:59.065Z,25.90
2018-09-01T14:43:26.975Z,26.00
2018-09-01T14:45:55.475Z,25.90
2018-09-01T14:48:23.409Z,26.00
2018-09-01T14:50:51.086Z,26.30
2018-09-01T14:53:23.567Z,25.90
2018-09-01T14:55:51.464Z,25.70
2018-09-01T14:58:20.628Z,25.50
2018-09-01T15:00:49.530Z,25.60
2018-09-01T15:03:17.532Z,25.40
2018-09-01T15:05:45.865Z,26.50
2018-09-01T15:08:13.853Z,26.40
2018-09-01T15:13:23.365Z,25.80
2018-09-01T15:15:51.027Z,25.90
2018-09-01T15:18:18.680Z,26.00
2018-09-01T15:20:47.426Z,25.40
2018-09-01T15:23:15.493Z,25.90
2018-09-01T15:25:43.586Z,25.20
2018-09-01T15:28:11.645Z,25.60
2018-09-01T15:30:40.184Z,25.50
2018-09-01T15:33:08.006Z,25.50
2018-09-01T15:35:35.899Z,25.60
2018-09-01T15:38:23.039Z,25.50
2018-09-01T15:40:51.593Z,25.40
2018-09-01T15:51:47.743Z,25.40
2018-09-01T15:54:15.545Z,25.50
2018-09-01T15:56:43.368Z,24.30
2018-09-01T15:59:11.156Z,25.70
2018-09-01T16:01:38.998Z,25.30
2018-09-01T16:04:06.849Z,24.60
2018-09-01T16:06:34.620Z,25.50
2018-09-01T16:09:02.468Z,25.30
2018-09-01T16:11:30.262Z,25.30
2018-09-01T16:13:57.995Z,25.40
2018-09-01T16:16:26.300Z,25.30
2018-09-01T16:18:54.554Z,25.30
2018-09-01T16:21:22.610Z,25.50
2018-09-01T16:23:50.644Z,25.50
2018-09-01T16:26:18.197Z,25.90
2018-09-01T16:28:47.742Z,25.50
2018-09-01T16:31:15.551Z,25.70
2018-09-01T16:33:43.232Z,26.40
2018-09-01T16:36:15.246Z,26.60
2018-09-01T16:38:43.536Z,26.50
2018-09-01T16:41:11.328Z,26.40
2018-09-01T16:43:39.170Z,27.20
2018-09-01T16:46:06.808Z,26.80
2018-09-01T16:48:34.645Z,26.70
2018-09-01T16:51:03.961Z,26.90
2018-09-01T16:53:31.745Z,26.90
2018-09-01T16:56:00.499Z,27.20
2018-09-01T16:58:28.396Z,27.20
2018-09-01T17:00:56.106Z,27.10
2018-09-01T17:03:24.206Z,27.00
2018-09-01T17:05:51.987Z,27.10
2018-09-01T17:08:19.778Z,27.30
2018-09-01T17:10:48.693Z,27.30
2018-09-01T17:13:17.612Z,27.50
2018-09-01T17:15:46.027Z,27.50
2018-09-01T17:18:14.608Z,27.70
2018-09-01T17:20:42.420Z,28.00
2018-09-01T17:23:10.044Z,28.20
2018-09-01T17:25:37.738Z,27.90
2018-09-01T17:28:05.603Z,28.10
2018-09-01T17:30:34.497Z,28.20
2018-09-01T17:33:02.442Z,28.20
2018-09-01T17:35:30.214Z,28.30
2018-09-01T17:37:59.347Z,28.50
2018-09-01T17:40:27.069Z,28.50
2018-09-01T17:42:55.372Z,29.10
2018-09-01T17:45:23.211Z,28.40
2018-09-01T17:47:51.065Z,28.90
2018-09-01T17:50:18.838Z,29.40
2018-09-01T17:52:46.618Z,29.50
2018-09-01T17:55:19.276Z,29.60
2018-09-01T17:57:46.908Z,29.60
2018-09-01T18:00:15.949Z,29.50
2018-09-01T18:02:43.691Z,29.90
2018-09-01T18:05:11.522Z,30.50
2018-09-01T18:07:39.433Z,31.10
2018-09-01T18:10:07.349Z,31.60
2018-09-01T18:12:35.561Z,31.80
2018-09-01T18:15:03.527Z,32.20
2018-09-01T18:17:31.407Z,32.70
2018-09-01T18:19:59.137Z,33.50
2018-09-01T18:22:27.009Z,33.60
2018-09-01T18:24:54.726Z,34.00
2018-09-01T18:27:22.369Z,34.70
2018-09-01T18:29:55.500Z,34.70
2018-09-01T18:32:23.226Z,34.70
2018-09-01T18:34:51.046Z,34.60
2018-09-01T18:37:19.260Z,34.50
2018-09-01T18:39:47.785Z,34.50
2018-09-01T18:42:15.914Z,34.50
2018-09-01T18:44:48.943Z,34.50
2018-09-01T18:47:16.678Z,34.50
2018-09-01T18:49:44.517Z,34.40
2018-09-01T18:52:12.577Z,34.30
2018-09-01T18:54:40.869Z,34.80
2018-09-01T18:57:08.727Z,34.90
2018-09-01T18:59:36.461Z,34.60
2018-09-01T19:02:04.902Z,34.40
2018-09-01T19:04:32.890Z,34.30
2018-09-01T19:07:00.659Z,34.70
2018-09-01T19:09:28.454Z,34.30
2018-09-01T19:11:56.146Z,34.50
2018-09-01T19:14:23.806Z,34.20
2018-09-01T19:16:51.590Z,35.00
2018-09-01T19:19:19.397Z,34.20
2018-09-01T19:21:47.030Z,34.30
2018-09-01T19:24:15.614Z,34.50
2018-09-01T19:26:43.812Z,34.10
2018-09-01T19:29:11.738Z,34.30
2018-09-01T19:31:39.618Z,33.50
2018-09-01T19:34:07.436Z,32.90
2018-09-01T19:36:35.109Z,32.10
2018-09-01T19:39:03.362Z,31.60
2018-09-01T19:41:31.281Z,31.50
2018-09-01T19:43:59.571Z,31.40
2018-09-01T19:46:28.072Z,31.20
2018-09-01T19:48:56.033Z,30.90
2018-09-01T19:51:24.038Z,31.00
2018-09-01T19:53:52.145Z,31.00
2018-09-01T19:56:20.717Z,31.00
2018-09-01T19:58:52.792Z,31.10
2018-09-01T20:01:20.855Z,31.10
2018-09-01T20:03:48.732Z,31.10
2018-09-01T20:06:16.763Z,31.10
2018-09-01T20:08:45.486Z,31.40
2018-09-01T20:11:18.868Z,31.30
2018-09-01T20:13:47.763Z,31.30
2018-09-01T20:16:16.350Z,31.60
2018-09-01T20:18:44.005Z,31.80
2018-09-01T20:21:16.414Z,32.00
2018-09-01T20:23:44.720Z,31.90
2018-09-01T20:26:13.393Z,32.80
2018-09-01T20:28:46.466Z,34.50
2018-09-01T20:31:14.287Z,34.80
2018-09-01T20:33:41.873Z,35.80
2018-09-01T20:36:15.148Z,36.50
2018-09-01T20:38:43.236Z,37.20
2018-09-01T20:41:10.902Z,37.90
2018-09-01T20:43:38.856Z,38.50
2018-09-01T20:46:08.140Z,39.60
2018-09-01T20:48:35.988Z,39.40
2018-09-01T20:51:04.418Z,38.90
2018-09-01T20:53:32.293Z,39.70
2018-09-01T20:56:00.209Z,39.90
2018-09-01T20:58:28.086Z,40.70
2018-09-01T21:00:55.929Z,40.80
2018-09-01T21:03:23.724Z,39.80
2018-09-01T21:05:51.340Z,40.00
2018-09-01T21:08:19.424Z,37.70
2018-09-01T21:10:47.272Z,37.30
2018-09-01T21:13:15.388Z,36.10
2018-09-01T21:15:44.612Z,33.70
2018-09-01T21:18:12.941Z,32.80
2018-09-01T21:20:40.649Z,32.20
2018-09-01T21:23:08.268Z,32.20
2018-09-01T21:25:35.969Z,31.90
2018-09-01T21:28:03.861Z,32.40
2018-09-01T21:30:32.256Z,31.90
2018-09-01T21:33:00.675Z,32.20
2018-09-01T21:35:28.278Z,32.80
2018-09-01T21:37:56.217Z,34.50
2018-09-01T21:40:24.765Z,34.10
2018-09-01T21:42:58.281Z,33.00
2018-09-01T21:45:26.583Z,34.00
2018-09-01T21:47:55.013Z,32.80
2018-09-01T21:50:22.979Z,32.50
2018-09-01T21:52:51.226Z,32.50
2018-09-01T21:55:19.801Z,32.40
2018-09-01T21:57:48.326Z,32.70
2018-09-01T22:00:16.125Z,32.80
2018-09-01T22:02:44.297Z,34.70
2018-09-01T22:05:15.954Z,34.50
2018-09-01T22:07:44.108Z,34.40
2018-09-01T22:10:11.854Z,34.30
2018-09-01T22:12:39.509Z,34.70
2018-09-01T22:15:07.419Z,34.20
2018-09-01T22:17:35.081Z,34.00
2018-09-01T22:20:03.052Z,33.70
2018-09-01T22:22:30.677Z,33.60
2018-09-01T22:24:58.685Z,35.70
2018-09-01T22:27:26.530Z,36.20
2018-09-01T22:29:54.194Z,37.90
2018-09-01T22:32:36.306Z,37.60
2018-09-01T22:35:04.082Z,38.20
2018-09-01T22:40:12.230Z,37.40
2018-09-01T22:42:44.313Z,38.00
2018-09-01T22:45:15.024Z,38.90
2018-09-01T22:47:43.044Z,39.50
2018-09-01T22:50:10.841Z,40.20
2018-09-01T22:52:42.352Z,40.10
2018-09-01T22:55:10.235Z,40.70
2018-09-01T22:57:41.848Z,41.30
2018-09-01T23:03:02.290Z,42.60
2018-09-01T23:05:30.017Z,42.60
2018-09-01T23:08:01.660Z,42.80
2018-09-01T23:10:37.150Z,42.70
2018-09-01T23:13:07.341Z,43.50
2018-09-01T23:15:35.285Z,43.00
2018-09-01T23:18:04.569Z,43.70
2018-09-01T23:20:32.397Z,43.30
2018-09-01T23:23:04.980Z,43.30
2018-09-01T23:25:32.643Z,43.50
2018-09-01T23:28:00.668Z,43.40
2018-09-01T23:30:28.359Z,43.80
2018-09-01T23:32:56.004Z,43.90
2018-09-01T23:35:23.859Z,44.10
2018-09-01T23:37:51.569Z,43.40
2018-09-01T23:40:21.449Z,44.20
2018-09-01T23:42:49.230Z,44.00
2018-09-01T23:45:16.909Z,44.60
2018-09-01T23:47:47.253Z,44.30
2018-09-01T23:50:19.026Z,45.10
2018-09-01T23:52:46.662Z,45.00
2018-09-01T23:55:14.667Z,46.20
2018-09-01T23:57:44.281Z,46.20
